• Join FlightAware (Why Join?)
  • Login
  • US Flag 
04:09PM EDT


 

Airport Tracker/Info


-or-


 

Live Flight TrackerFlight Track Log ✈ CSH9415 ✈ 20-Jun-2014 ✈ ZSSS / SHA - ZSLG / LYG

Flight Track Log - Related Links

Times and Time Zones

All times are in EDT time to prevent confusion due to time zone crossing. See the CSH9415 flight status page for this flight to view local times or setup timezone preferences in your user account.

Time Position Orientation Groundspeed Altitude Reporting Facility
EDT Latitude Longitude Course Direction KTS MPH feet Rate Location/Type
09:28PM 31.7206 120.9690 329° Northwest  Level Estimated
09:29PM 31.7753 120.9302 329° Northwest  Level Estimated
09:30PM 31.8301 120.8914 329° Northwest  Level Estimated
09:31PM 31.8848 120.8526 329° Northwest  Level Estimated
09:32PM 31.9395 120.8137 329° Northwest  Level Estimated
09:33PM 31.9942 120.7747 329° Northwest  Level Estimated
09:34PM 32.0489 120.7357 329° Northwest  Level Estimated
09:35PM 32.1035 120.6967 329° Northwest  Level Estimated
09:36PM 32.1582 120.6577 329° Northwest  Level Estimated
09:37PM 32.2128 120.6185 329° Northwest  Level Estimated
09:38PM 32.2674 120.5794 329° Northwest  Level Estimated
09:39PM 32.3221 120.5401 329° Northwest  Level Estimated
09:40PM 32.3767 120.5009 329° Northwest  Level Estimated
09:41PM 32.4313 120.4616 329° Northwest  Level Estimated
09:42PM 32.4859 120.4222 329° Northwest  Level Estimated
09:43PM 32.5404 120.3828 329° Northwest  Level Estimated
09:44PM 32.5950 120.3433 329° Northwest  Level Estimated
09:45PM 32.6495 120.3038 329° Northwest  Level Estimated
09:46PM 32.7041 120.2643 329° Northwest  Level Estimated
09:47PM 32.7586 120.2247 329° Northwest  Level Estimated
09:48PM 32.8131 120.1850 329° Northwest  Level Estimated
09:49PM 32.8676 120.1453 329° Northwest  Level Estimated
09:50PM 32.9221 120.1056 329° Northwest  Level Estimated
09:51PM 32.9766 120.0658 329° Northwest  Level Estimated
09:52PM 33.0310 120.0259 328° Northwest  Level Estimated
09:53PM 33.0855 119.9861 328° Northwest  Level Estimated
09:54PM 33.1399 119.9461 328° Northwest  Level Estimated
09:55PM 33.1943 119.9061 328° Northwest  Level Estimated
09:56PM 33.2487 119.8661 328° Northwest  Level Estimated
09:57PM 33.3031 119.8260 328° Northwest  Level Estimated
09:58PM 33.3575 119.7858 328° Northwest  Level Estimated
09:59PM 33.4119 119.7456 328° Northwest  Level Estimated
10:00PM 33.4662 119.7054 328° Northwest  Level Estimated
10:01PM 33.5206 119.6651 328° Northwest  Level Estimated
10:02PM 33.5749 119.6248 328° Northwest  Level Estimated
10:03PM 33.6292 119.5844 328° Northwest  Level Estimated
10:04PM 33.6835 119.5439 328° Northwest  Level Estimated
10:05PM 33.7378 119.5034 328° Northwest  Level Estimated
10:06PM 33.7921 119.4629 328° Northwest  Level Estimated
10:07PM 33.8464 119.4223 328° Northwest  Level Estimated
10:08PM 33.9006 119.3816 328° Northwest  Level Estimated
10:09PM 33.9549 119.3409 328° Northwest  Level Estimated
10:10PM 34.0091 119.3002 328° Northwest  Level Estimated
10:11PM 34.0633 119.2594 328° Northwest  Level Estimated
10:12PM 34.1175 119.2185 328° Northwest  Level Estimated
10:13PM 34.1717 119.1776 328° Northwest  Level Estimated
10:14PM 34.2258 119.1366 328° Northwest  Level Estimated
10:15PM 34.2800 119.0956 328° Northwest  Level Estimated
10:16PM 34.3341 119.0545 328° Northwest  Level Estimated
10:17PM 34.3883 119.0134 328° Northwest  Level Estimated
10:18PM 34.4424 118.9722 328° Northwest  Level Estimated
10:19PM 34.4965 118.9310 328° Northwest  Level Estimated
10:20PM 34.5506 118.8897 328° Northwest  Level Estimated